KHLX

Twin County Airport

Galax Hillsville, Virginia, USA
METAR KHLX 241215Z AUTO 00000KT 10SM OVC110 13/12 A3019 RMK AO2 T01270118
Observed Flight Rules
Feb-24 @ 12:15 UTC (9 minutes ago) Visual Flight Rules
Wind Visibility Clouds
Calm 10 miles
  • Overcast at 11,000' AGL
Temperatures Readings
Current 13°C / 55°F
Dewpoint 12°C / 54°F
Humidity 94%
Altimeter 30.19" Hg
Pressure 1022 hPa
Elevation 834
METAR KHLX 241215Z AUTO 00000KT 10SM OVC110 13/12 A3019 RMK AO2 T01270118
Observed Flight Rules
Feb-24 @ 12:15 UTC
(9 minutes ago)
VFR
Wind Visibility
Calm 10 miles
Clouds
  • Overcast at 11,000' AGL
Temperature Dewpoint
13°C / 55°F 12°C / 54°F
Humidity Altimeter Pressure
94% 30.19" Hg 1022 hPa